Terminal Aerodrome Forecast
Issued by NWS

Home | Current Version | Previous Version | Graphics & Text | Print | Product List | Glossary On
Versions: 1 2 3 4 5 6 7 8 9 10 11 12 13 14 15 16 17 18 19 20 21
000
FTUS43 KDLH 032300
TAFBRD
TAF
KBRD 032333Z 0400/0424 21005KT P6SM -SHRA SCT008 OVC050
     FM040300 22004KT 4SM BR SCT007 BKN022
      TEMPO 0407/0411 2SM BR BKN007
     FM041400 02006KT 5SM BR SCT013 BKN024
     FM041600 02007KT P6SM BKN028 BKN040=

USA.gov is the U.S. government's official web portal to all federal, state and local government web resources and services.